sensor_id;sensor_type;location;lat;lon;timestamp;P1;durP1;ratioP1;P2;durP2;ratioP2
78858;SDS011;68210;52.032;4.634;2023-08-24T00:01:40;2.92;;;2.22;;
78858;SDS011;68210;52.032;4.634;2023-08-24T00:03:41;4.13;;;3.13;;
78858;SDS011;68210;52.032;4.634;2023-08-24T00:05:41;7.78;;;2.67;;
78858;SDS011;68210;52.032;4.634;2023-08-24T00:07:42;5.15;;;2.75;;
78858;SDS011;68210;52.032;4.634;2023-08-24T00:09:42;7.80;;;3.60;;
78858;SDS011;68210;52.032;4.634;2023-08-24T00:11:43;5.05;;;3.40;;
78858;SDS011;68210;52.032;4.634;2023-08-24T00:13:44;5.15;;;2.65;;
78858;SDS011;68210;52.032;4.634;2023-08-24T00:15:48;5.95;;;3.30;;
78858;SDS011;68210;52.032;4.634;2023-08-24T00:17:49;3.95;;;2.30;;
78858;SDS011;68210;52.032;4.634;2023-08-24T00:19:49;6.95;;;3.50;;
78858;SDS011;68210;52.032;4.634;2023-08-24T00:21:50;3.53;;;2.72;;
78858;SDS011;68210;52.032;4.634;2023-08-24T00:23:50;5.45;;;2.67;;
78858;SDS011;68210;52.032;4.634;2023-08-24T00:25:50;9.30;;;4.20;;
78858;SDS011;68210;52.032;4.634;2023-08-24T00:27:53;7.65;;;3.10;;
78858;SDS011;68210;52.032;4.634;2023-08-24T00:29:54;7.88;;;3.53;;
78858;SDS011;68210;52.032;4.634;2023-08-24T00:31:54;7.07;;;3.30;;
78858;SDS011;68210;52.032;4.634;2023-08-24T00:33:55;5.60;;;3.70;;
78858;SDS011;68210;52.032;4.634;2023-08-24T00:35:59;10.13;;;4.25;;
78858;SDS011;68210;52.032;4.634;2023-08-24T00:38:00;5.75;;;3.30;;
78858;SDS011;68210;52.032;4.634;2023-08-24T00:40:01;7.03;;;3.60;;
78858;SDS011;68210;52.032;4.634;2023-08-24T00:42:08;7.30;;;3.38;;
78858;SDS011;68210;52.032;4.634;2023-08-24T00:44:13;8.50;;;2.92;;
78858;SDS011;68210;52.032;4.634;2023-08-24T00:46:13;8.07;;;3.05;;
78858;SDS011;68210;52.032;4.634;2023-08-24T00:48:13;8.35;;;3.08;;
78858;SDS011;68210;52.032;4.634;2023-08-24T00:50:15;7.93;;;3.20;;
78858;SDS011;68210;52.032;4.634;2023-08-24T00:54:18;4.43;;;2.58;;
78858;SDS011;68210;52.032;4.634;2023-08-24T00:56:19;6.38;;;2.83;;
78858;SDS011;68210;52.032;4.634;2023-08-24T00:58:24;7.10;;;3.53;;
78858;SDS011;68210;52.032;4.634;2023-08-24T01:00:26;9.27;;;3.80;;
78858;SDS011;68210;52.032;4.634;2023-08-24T01:02:27;7.28;;;3.90;;
78858;SDS011;68210;52.032;4.634;2023-08-24T01:04:27;9.95;;;4.78;;
78858;SDS011;68210;52.032;4.634;2023-08-24T01:06:28;5.10;;;3.08;;
78858;SDS011;68210;52.032;4.634;2023-08-24T01:08:28;9.38;;;4.45;;
78858;SDS011;68210;52.032;4.634;2023-08-24T01:10:32;6.57;;;3.35;;
78858;SDS011;68210;52.032;4.634;2023-08-24T01:15:23;6.05;;;3.22;;
78858;SDS011;68210;52.032;4.634;2023-08-24T01:17:26;7.80;;;4.00;;
78858;SDS011;68210;52.032;4.634;2023-08-24T01:21:41;7.28;;;3.15;;
78858;SDS011;68210;52.032;4.634;2023-08-24T01:23:46;8.50;;;3.70;;
78858;SDS011;68210;52.032;4.634;2023-08-24T01:28:14;4.72;;;2.63;;
78858;SDS011;68210;52.032;4.634;2023-08-24T01:30:16;6.47;;;2.75;;
78858;SDS011;68210;52.032;4.634;2023-08-24T01:32:18;10.23;;;2.88;;
78858;SDS011;68210;52.032;4.634;2023-08-24T01:34:18;6.05;;;2.83;;
78858;SDS011;68210;52.032;4.634;2023-08-24T01:36:18;6.03;;;3.00;;
78858;SDS011;68210;52.032;4.634;2023-08-24T01:38:19;8.13;;;4.05;;
78858;SDS011;68210;52.032;4.634;2023-08-24T01:40:22;8.68;;;3.95;;
78858;SDS011;68210;52.032;4.634;2023-08-24T01:42:27;6.95;;;3.75;;
78858;SDS011;68210;52.032;4.634;2023-08-24T01:44:32;8.20;;;4.28;;
78858;SDS011;68210;52.032;4.634;2023-08-24T01:46:36;6.03;;;4.30;;
78858;SDS011;68210;52.032;4.634;2023-08-24T01:48:37;6.60;;;2.50;;
78858;SDS011;68210;52.032;4.634;2023-08-24T01:50:39;5.13;;;3.30;;
78858;SDS011;68210;52.032;4.634;2023-08-24T01:52:41;7.03;;;4.45;;
78858;SDS011;68210;52.032;4.634;2023-08-24T01:54:42;7.75;;;4.07;;
78858;SDS011;68210;52.032;4.634;2023-08-24T01:56:43;9.15;;;4.03;;
78858;SDS011;68210;52.032;4.634;2023-08-24T01:58:44;11.05;;;4.97;;
78858;SDS011;68210;52.032;4.634;2023-08-24T02:00:44;8.40;;;4.82;;
78858;SDS011;68210;52.032;4.634;2023-08-24T02:02:45;7.28;;;4.00;;
78858;SDS011;68210;52.032;4.634;2023-08-24T02:04:45;9.10;;;5.18;;
78858;SDS011;68210;52.032;4.634;2023-08-24T02:06:45;12.40;;;5.13;;
78858;SDS011;68210;52.032;4.634;2023-08-24T02:08:46;8.30;;;5.25;;
78858;SDS011;68210;52.032;4.634;2023-08-24T02:10:47;9.57;;;4.70;;
78858;SDS011;68210;52.032;4.634;2023-08-24T02:12:47;9.23;;;4.50;;
78858;SDS011;68210;52.032;4.634;2023-08-24T02:14:48;7.53;;;4.63;;
78858;SDS011;68210;52.032;4.634;2023-08-24T02:16:48;11.57;;;5.22;;
78858;SDS011;68210;52.032;4.634;2023-08-24T02:18:48;10.50;;;4.75;;
78858;SDS011;68210;52.032;4.634;2023-08-24T02:20:49;11.48;;;4.32;;
78858;SDS011;68210;52.032;4.634;2023-08-24T02:22:49;8.98;;;4.25;;
78858;SDS011;68210;52.032;4.634;2023-08-24T02:24:50;11.30;;;5.38;;
78858;SDS011;68210;52.032;4.634;2023-08-24T02:26:53;6.88;;;4.13;;
78858;SDS011;68210;52.032;4.634;2023-08-24T02:28:54;8.20;;;5.40;;
78858;SDS011;68210;52.032;4.634;2023-08-24T02:30:54;10.95;;;5.28;;
78858;SDS011;68210;52.032;4.634;2023-08-24T02:32:54;8.05;;;4.63;;
78858;SDS011;68210;52.032;4.634;2023-08-24T02:34:55;7.45;;;4.82;;
78858;SDS011;68210;52.032;4.634;2023-08-24T02:36:56;11.73;;;5.53;;
78858;SDS011;68210;52.032;4.634;2023-08-24T02:38:56;8.70;;;5.63;;
78858;SDS011;68210;52.032;4.634;2023-08-24T02:41:01;9.43;;;3.78;;
78858;SDS011;68210;52.032;4.634;2023-08-24T02:43:02;9.82;;;4.60;;
78858;SDS011;68210;52.032;4.634;2023-08-24T02:45:03;7.78;;;4.88;;
78858;SDS011;68210;52.032;4.634;2023-08-24T02:47:04;9.40;;;5.25;;
78858;SDS011;68210;52.032;4.634;2023-08-24T02:49:05;8.40;;;4.25;;
78858;SDS011;68210;52.032;4.634;2023-08-24T02:51:05;2.90;;;1.90;;
78858;SDS011;68210;52.032;4.634;2023-08-24T02:53:06;9.15;;;5.07;;
78858;SDS011;68210;52.032;4.634;2023-08-24T02:55:06;6.50;;;3.88;;
78858;SDS011;68210;52.032;4.634;2023-08-24T02:57:07;3.80;;;2.10;;
78858;SDS011;68210;52.032;4.634;2023-08-24T02:59:08;9.32;;;5.72;;
78858;SDS011;68210;52.032;4.634;2023-08-24T03:01:08;8.77;;;4.97;;
78858;SDS011;68210;52.032;4.634;2023-08-24T03:03:08;8.43;;;4.97;;
78858;SDS011;68210;52.032;4.634;2023-08-24T03:05:09;6.72;;;4.57;;
78858;SDS011;68210;52.032;4.634;2023-08-24T03:07:09;5.55;;;4.22;;
78858;SDS011;68210;52.032;4.634;2023-08-24T03:09:10;11.55;;;4.85;;
78858;SDS011;68210;52.032;4.634;2023-08-24T03:11:10;7.60;;;3.60;;
78858;SDS011;68210;52.032;4.634;2023-08-24T03:13:11;4.95;;;3.03;;
78858;SDS011;68210;52.032;4.634;2023-08-24T03:15:11;4.72;;;3.20;;
78858;SDS011;68210;52.032;4.634;2023-08-24T03:17:12;5.38;;;3.22;;
78858;SDS011;68210;52.032;4.634;2023-08-24T03:19:12;9.13;;;5.90;;
78858;SDS011;68210;52.032;4.634;2023-08-24T03:21:14;11.52;;;5.05;;
78858;SDS011;68210;52.032;4.634;2023-08-24T03:23:15;9.05;;;4.93;;
78858;SDS011;68210;52.032;4.634;2023-08-24T03:25:15;8.93;;;5.72;;
78858;SDS011;68210;52.032;4.634;2023-08-24T03:27:16;11.20;;;5.57;;
78858;SDS011;68210;52.032;4.634;2023-08-24T03:29:16;8.60;;;5.40;;
78858;SDS011;68210;52.032;4.634;2023-08-24T03:31:17;9.85;;;5.85;;
78858;SDS011;68210;52.032;4.634;2023-08-24T03:33:17;6.55;;;4.43;;
78858;SDS011;68210;52.032;4.634;2023-08-24T03:35:19;4.20;;;2.88;;
78858;SDS011;68210;52.032;4.634;2023-08-24T03:37:19;7.38;;;4.63;;
78858;SDS011;68210;52.032;4.634;2023-08-24T03:39:20;5.85;;;3.17;;
78858;SDS011;68210;52.032;4.634;2023-08-24T03:41:20;5.47;;;3.45;;
78858;SDS011;68210;52.032;4.634;2023-08-24T03:43:20;5.68;;;2.88;;
78858;SDS011;68210;52.032;4.634;2023-08-24T03:45:21;5.68;;;2.70;;
78858;SDS011;68210;52.032;4.634;2023-08-24T03:47:22;4.00;;;2.90;;
78858;SDS011;68210;52.032;4.634;2023-08-24T03:49:22;4.93;;;2.97;;
78858;SDS011;68210;52.032;4.634;2023-08-24T03:51:22;5.63;;;3.33;;
78858;SDS011;68210;52.032;4.634;2023-08-24T03:53:23;7.88;;;3.00;;
78858;SDS011;68210;52.032;4.634;2023-08-24T03:55:24;5.30;;;2.75;;
78858;SDS011;68210;52.032;4.634;2023-08-24T03:57:24;6.15;;;3.40;;
78858;SDS011;68210;52.032;4.634;2023-08-24T03:59:25;3.63;;;2.10;;
78858;SDS011;68210;52.032;4.634;2023-08-24T04:01:25;4.28;;;2.30;;
78858;SDS011;68210;52.032;4.634;2023-08-24T04:03:26;5.00;;;2.72;;
78858;SDS011;68210;52.032;4.634;2023-08-24T04:05:26;8.38;;;3.45;;
78858;SDS011;68210;52.032;4.634;2023-08-24T04:07:27;13.98;;;4.95;;
78858;SDS011;68210;52.032;4.634;2023-08-24T04:09:28;7.22;;;2.95;;
78858;SDS011;68210;52.032;4.634;2023-08-24T04:11:29;7.03;;;4.80;;
78858;SDS011;68210;52.032;4.634;2023-08-24T04:13:29;8.75;;;3.50;;
78858;SDS011;68210;52.032;4.634;2023-08-24T04:15:29;3.05;;;2.28;;
78858;SDS011;68210;52.032;4.634;2023-08-24T04:17:30;5.78;;;2.92;;
78858;SDS011;68210;52.032;4.634;2023-08-24T04:19:31;9.02;;;4.03;;
78858;SDS011;68210;52.032;4.634;2023-08-24T04:21:31;7.53;;;4.30;;
78858;SDS011;68210;52.032;4.634;2023-08-24T04:23:32;9.55;;;5.90;;
78858;SDS011;68210;52.032;4.634;2023-08-24T04:25:32;10.77;;;4.97;;
78858;SDS011;68210;52.032;4.634;2023-08-24T04:27:32;7.65;;;4.93;;
78858;SDS011;68210;52.032;4.634;2023-08-24T04:29:33;11.88;;;6.78;;
78858;SDS011;68210;52.032;4.634;2023-08-24T04:31:33;13.13;;;6.97;;
78858;SDS011;68210;52.032;4.634;2023-08-24T04:33:34;8.57;;;5.97;;
78858;SDS011;68210;52.032;4.634;2023-08-24T04:35:34;15.10;;;7.35;;
78858;SDS011;68210;52.032;4.634;2023-08-24T04:37:36;13.32;;;7.30;;
78858;SDS011;68210;52.032;4.634;2023-08-24T04:39:37;12.32;;;6.38;;
78858;SDS011;68210;52.032;4.634;2023-08-24T04:41:37;13.32;;;6.43;;
78858;SDS011;68210;52.032;4.634;2023-08-24T04:43:38;14.80;;;8.80;;
78858;SDS011;68210;52.032;4.634;2023-08-24T04:45:38;9.27;;;6.38;;
78858;SDS011;68210;52.032;4.634;2023-08-24T04:47:39;14.02;;;7.05;;
78858;SDS011;68210;52.032;4.634;2023-08-24T04:49:39;12.75;;;7.18;;
78858;SDS011;68210;52.032;4.634;2023-08-24T04:51:39;12.23;;;8.00;;
78858;SDS011;68210;52.032;4.634;2023-08-24T04:53:40;10.95;;;7.75;;
78858;SDS011;68210;52.032;4.634;2023-08-24T04:55:40;10.48;;;6.88;;
78858;SDS011;68210;52.032;4.634;2023-08-24T04:57:41;14.23;;;8.20;;
78858;SDS011;68210;52.032;4.634;2023-08-24T04:59:42;11.90;;;7.18;;
78858;SDS011;68210;52.032;4.634;2023-08-24T05:01:42;7.88;;;5.18;;
78858;SDS011;68210;52.032;4.634;2023-08-24T05:03:42;9.10;;;6.25;;
78858;SDS011;68210;52.032;4.634;2023-08-24T05:05:44;9.57;;;6.60;;
78858;SDS011;68210;52.032;4.634;2023-08-24T05:07:44;14.02;;;8.65;;
78858;SDS011;68210;52.032;4.634;2023-08-24T05:09:45;10.68;;;5.80;;
78858;SDS011;68210;52.032;4.634;2023-08-24T05:11:45;9.80;;;4.70;;
78858;SDS011;68210;52.032;4.634;2023-08-24T05:13:46;8.65;;;6.15;;
78858;SDS011;68210;52.032;4.634;2023-08-24T05:15:46;18.20;;;9.43;;
78858;SDS011;68210;52.032;4.634;2023-08-24T05:17:47;10.18;;;6.85;;
78858;SDS011;68210;52.032;4.634;2023-08-24T05:19:56;11.15;;;7.10;;
78858;SDS011;68210;52.032;4.634;2023-08-24T05:21:56;10.52;;;6.65;;
78858;SDS011;68210;52.032;4.634;2023-08-24T05:23:57;15.30;;;8.88;;
78858;SDS011;68210;52.032;4.634;2023-08-24T05:25:57;15.38;;;9.32;;
78858;SDS011;68210;52.032;4.634;2023-08-24T05:27:58;12.82;;;8.30;;
78858;SDS011;68210;52.032;4.634;2023-08-24T05:29:59;15.60;;;8.23;;
78858;SDS011;68210;52.032;4.634;2023-08-24T05:31:59;13.45;;;8.05;;
78858;SDS011;68210;52.032;4.634;2023-08-24T05:33:59;10.95;;;7.57;;
78858;SDS011;68210;52.032;4.634;2023-08-24T05:36:00;13.52;;;7.53;;
78858;SDS011;68210;52.032;4.634;2023-08-24T05:38:00;12.82;;;8.48;;
78858;SDS011;68210;52.032;4.634;2023-08-24T05:40:01;14.27;;;7.38;;
78858;SDS011;68210;52.032;4.634;2023-08-24T05:42:02;16.95;;;9.10;;
78858;SDS011;68210;52.032;4.634;2023-08-24T05:44:02;11.55;;;7.05;;
78858;SDS011;68210;52.032;4.634;2023-08-24T05:46:03;15.57;;;8.43;;
78858;SDS011;68210;52.032;4.634;2023-08-24T05:48:03;11.60;;;7.60;;
78858;SDS011;68210;52.032;4.634;2023-08-24T05:50:04;16.20;;;8.82;;
78858;SDS011;68210;52.032;4.634;2023-08-24T05:52:05;15.68;;;9.20;;
78858;SDS011;68210;52.032;4.634;2023-08-24T05:54:05;17.55;;;10.13;;
78858;SDS011;68210;52.032;4.634;2023-08-24T05:56:06;16.48;;;8.80;;
78858;SDS011;68210;52.032;4.634;2023-08-24T05:58:06;15.00;;;8.15;;
78858;SDS011;68210;52.032;4.634;2023-08-24T06:00:08;15.85;;;9.32;;
78858;SDS011;68210;52.032;4.634;2023-08-24T06:02:09;12.93;;;8.82;;
78858;SDS011;68210;52.032;4.634;2023-08-24T06:04:10;12.85;;;8.00;;
78858;SDS011;68210;52.032;4.634;2023-08-24T06:06:11;13.32;;;8.32;;
78858;SDS011;68210;52.032;4.634;2023-08-24T06:08:11;10.90;;;6.57;;
78858;SDS011;68210;52.032;4.634;2023-08-24T06:10:11;11.32;;;7.93;;
78858;SDS011;68210;52.032;4.634;2023-08-24T06:12:12;12.82;;;6.93;;
78858;SDS011;68210;52.032;4.634;2023-08-24T06:14:12;13.52;;;7.90;;
78858;SDS011;68210;52.032;4.634;2023-08-24T06:16:13;13.73;;;8.50;;
78858;SDS011;68210;52.032;4.634;2023-08-24T06:18:13;9.90;;;6.40;;
78858;SDS011;68210;52.032;4.634;2023-08-24T06:20:13;15.10;;;7.93;;
78858;SDS011;68210;52.032;4.634;2023-08-24T06:22:14;11.25;;;7.28;;
78858;SDS011;68210;52.032;4.634;2023-08-24T06:24:14;15.60;;;9.38;;
78858;SDS011;68210;52.032;4.634;2023-08-24T06:26:15;15.00;;;7.90;;
78858;SDS011;68210;52.032;4.634;2023-08-24T06:28:15;15.23;;;9.73;;
78858;SDS011;68210;52.032;4.634;2023-08-24T06:30:16;12.95;;;8.25;;
78858;SDS011;68210;52.032;4.634;2023-08-24T06:32:17;12.75;;;7.90;;
78858;SDS011;68210;52.032;4.634;2023-08-24T06:34:17;18.25;;;9.25;;
78858;SDS011;68210;52.032;4.634;2023-08-24T06:36:17;13.68;;;9.07;;
78858;SDS011;68210;52.032;4.634;2023-08-24T06:38:18;14.35;;;9.18;;
78858;SDS011;68210;52.032;4.634;2023-08-24T06:40:18;12.32;;;8.57;;
78858;SDS011;68210;52.032;4.634;2023-08-24T06:42:19;14.73;;;7.80;;
78858;SDS011;68210;52.032;4.634;2023-08-24T06:44:19;14.43;;;9.20;;
78858;SDS011;68210;52.032;4.634;2023-08-24T06:46:19;15.77;;;9.90;;
78858;SDS011;68210;52.032;4.634;2023-08-24T06:48:20;16.90;;;8.32;;
78858;SDS011;68210;52.032;4.634;2023-08-24T06:50:20;14.02;;;7.43;;
78858;SDS011;68210;52.032;4.634;2023-08-24T06:52:21;13.40;;;9.50;;
78858;SDS011;68210;52.032;4.634;2023-08-24T06:54:21;13.95;;;10.10;;
78858;SDS011;68210;52.032;4.634;2023-08-24T06:56:22;15.82;;;9.05;;
78858;SDS011;68210;52.032;4.634;2023-08-24T06:58:23;15.18;;;10.25;;
78858;SDS011;68210;52.032;4.634;2023-08-24T07:00:23;17.67;;;9.70;;
78858;SDS011;68210;52.032;4.634;2023-08-24T07:02:25;14.68;;;8.52;;
78858;SDS011;68210;52.032;4.634;2023-08-24T07:04:25;16.77;;;11.00;;
78858;SDS011;68210;52.032;4.634;2023-08-24T07:06:26;16.67;;;11.70;;
78858;SDS011;68210;52.032;4.634;2023-08-24T07:08:27;14.85;;;9.60;;
78858;SDS011;68210;52.032;4.634;2023-08-24T07:10:27;13.10;;;9.68;;
78858;SDS011;68210;52.032;4.634;2023-08-24T07:12:27;15.27;;;9.27;;
78858;SDS011;68210;52.032;4.634;2023-08-24T07:14:28;17.90;;;11.02;;
78858;SDS011;68210;52.032;4.634;2023-08-24T07:16:28;13.52;;;8.95;;
78858;SDS011;68210;52.032;4.634;2023-08-24T07:18:29;13.50;;;9.43;;
78858;SDS011;68210;52.032;4.634;2023-08-24T07:20:29;11.82;;;8.68;;
78858;SDS011;68210;52.032;4.634;2023-08-24T07:22:29;14.02;;;8.98;;
78858;SDS011;68210;52.032;4.634;2023-08-24T07:24:30;13.40;;;9.43;;
78858;SDS011;68210;52.032;4.634;2023-08-24T07:26:33;16.70;;;8.32;;
78858;SDS011;68210;52.032;4.634;2023-08-24T07:28:33;12.20;;;8.50;;
78858;SDS011;68210;52.032;4.634;2023-08-24T07:30:35;17.05;;;9.65;;
78858;SDS011;68210;52.032;4.634;2023-08-24T07:32:35;13.55;;;9.40;;
78858;SDS011;68210;52.032;4.634;2023-08-24T07:34:36;16.15;;;8.80;;
78858;SDS011;68210;52.032;4.634;2023-08-24T07:36:36;13.85;;;9.73;;
78858;SDS011;68210;52.032;4.634;2023-08-24T07:38:37;12.98;;;8.27;;
78858;SDS011;68210;52.032;4.634;2023-08-24T07:40:37;14.63;;;8.75;;
78858;SDS011;68210;52.032;4.634;2023-08-24T07:42:47;14.23;;;9.20;;
78858;SDS011;68210;52.032;4.634;2023-08-24T07:44:50;15.93;;;8.00;;
78858;SDS011;68210;52.032;4.634;2023-08-24T07:46:51;16.50;;;9.35;;
78858;SDS011;68210;52.032;4.634;2023-08-24T07:48:51;16.63;;;9.50;;
78858;SDS011;68210;52.032;4.634;2023-08-24T07:50:51;13.32;;;9.20;;
78858;SDS011;68210;52.032;4.634;2023-08-24T07:52:52;16.27;;;9.38;;
78858;SDS011;68210;52.032;4.634;2023-08-24T07:54:52;14.10;;;8.73;;
78858;SDS011;68210;52.032;4.634;2023-08-24T07:56:53;17.95;;;9.70;;
78858;SDS011;68210;52.032;4.634;2023-08-24T07:58:53;18.55;;;9.02;;
78858;SDS011;68210;52.032;4.634;2023-08-24T08:00:53;19.67;;;8.98;;
78858;SDS011;68210;52.032;4.634;2023-08-24T08:02:54;13.75;;;8.80;;
78858;SDS011;68210;52.032;4.634;2023-08-24T08:04:57;13.40;;;10.13;;
78858;SDS011;68210;52.032;4.634;2023-08-24T08:06:58;20.17;;;9.98;;
78858;SDS011;68210;52.032;4.634;2023-08-24T08:08:58;15.57;;;9.52;;
78858;SDS011;68210;52.032;4.634;2023-08-24T08:10:59;19.45;;;11.20;;
78858;SDS011;68210;52.032;4.634;2023-08-24T08:13:01;16.63;;;8.55;;
78858;SDS011;68210;52.032;4.634;2023-08-24T08:15:01;19.92;;;11.02;;
78858;SDS011;68210;52.032;4.634;2023-08-24T08:17:02;13.45;;;9.30;;
78858;SDS011;68210;52.032;4.634;2023-08-24T08:19:02;14.30;;;9.82;;
78858;SDS011;68210;52.032;4.634;2023-08-24T08:21:09;15.77;;;11.13;;
78858;SDS011;68210;52.032;4.634;2023-08-24T08:23:11;16.25;;;10.07;;
78858;SDS011;68210;52.032;4.634;2023-08-24T08:25:12;18.48;;;9.98;;
78858;SDS011;68210;52.032;4.634;2023-08-24T08:27:12;19.95;;;10.10;;
78858;SDS011;68210;52.032;4.634;2023-08-24T08:29:13;22.08;;;10.63;;
78858;SDS011;68210;52.032;4.634;2023-08-24T08:31:13;14.85;;;9.73;;
78858;SDS011;68210;52.032;4.634;2023-08-24T08:33:13;18.13;;;11.00;;
78858;SDS011;68210;52.032;4.634;2023-08-24T08:35:14;16.45;;;9.88;;
78858;SDS011;68210;52.032;4.634;2023-08-24T08:37:14;25.17;;;12.30;;
78858;SDS011;68210;52.032;4.634;2023-08-24T08:39:15;19.00;;;11.45;;
78858;SDS011;68210;52.032;4.634;2023-08-24T08:41:17;19.30;;;12.15;;
78858;SDS011;68210;52.032;4.634;2023-08-24T08:43:22;18.88;;;10.63;;
78858;SDS011;68210;52.032;4.634;2023-08-24T08:45:25;17.10;;;10.77;;
78858;SDS011;68210;52.032;4.634;2023-08-24T08:47:26;18.58;;;11.52;;
78858;SDS011;68210;52.032;4.634;2023-08-24T08:49:29;19.40;;;11.30;;
78858;SDS011;68210;52.032;4.634;2023-08-24T08:51:31;15.38;;;10.40;;
78858;SDS011;68210;52.032;4.634;2023-08-24T08:53:32;18.52;;;11.20;;
78858;SDS011;68210;52.032;4.634;2023-08-24T08:55:33;21.13;;;12.18;;
78858;SDS011;68210;52.032;4.634;2023-08-24T08:57:33;15.50;;;10.05;;
78858;SDS011;68210;52.032;4.634;2023-08-24T08:59:34;17.95;;;11.45;;
78858;SDS011;68210;52.032;4.634;2023-08-24T09:01:36;24.92;;;12.38;;
78858;SDS011;68210;52.032;4.634;2023-08-24T09:03:38;21.08;;;11.90;;
78858;SDS011;68210;52.032;4.634;2023-08-24T09:05:39;16.95;;;11.25;;
78858;SDS011;68210;52.032;4.634;2023-08-24T09:07:40;17.17;;;10.88;;
78858;SDS011;68210;52.032;4.634;2023-08-24T09:09:41;15.73;;;10.98;;
78858;SDS011;68210;52.032;4.634;2023-08-24T09:11:43;21.17;;;10.60;;
78858;SDS011;68210;52.032;4.634;2023-08-24T09:13:47;17.42;;;11.80;;
78858;SDS011;68210;52.032;4.634;2023-08-24T09:15:47;17.10;;;11.48;;
78858;SDS011;68210;52.032;4.634;2023-08-24T09:17:52;17.00;;;12.50;;
78858;SDS011;68210;52.032;4.634;2023-08-24T09:21:57;17.25;;;11.13;;
78858;SDS011;68210;52.032;4.634;2023-08-24T09:23:59;20.08;;;12.23;;
78858;SDS011;68210;52.032;4.634;2023-08-24T09:25:59;17.35;;;11.65;;
78858;SDS011;68210;52.032;4.634;2023-08-24T09:28:00;16.77;;;11.60;;
78858;SDS011;68210;52.032;4.634;2023-08-24T09:30:01;21.95;;;12.57;;
78858;SDS011;68210;52.032;4.634;2023-08-24T09:32:02;18.05;;;11.38;;
78858;SDS011;68210;52.032;4.634;2023-08-24T09:34:03;18.05;;;12.13;;
78858;SDS011;68210;52.032;4.634;2023-08-24T09:36:05;16.25;;;11.85;;
78858;SDS011;68210;52.032;4.634;2023-08-24T09:38:17;19.58;;;11.75;;
78858;SDS011;68210;52.032;4.634;2023-08-24T09:40:23;16.35;;;11.95;;
78858;SDS011;68210;52.032;4.634;2023-08-24T09:42:24;21.10;;;11.57;;
78858;SDS011;68210;52.032;4.634;2023-08-24T09:44:26;12.77;;;9.35;;
78858;SDS011;68210;52.032;4.634;2023-08-24T09:46:28;28.95;;;11.95;;
78858;SDS011;68210;52.032;4.634;2023-08-24T09:48:28;15.07;;;9.70;;
78858;SDS011;68210;52.032;4.634;2023-08-24T09:50:31;16.02;;;11.05;;
78858;SDS011;68210;52.032;4.634;2023-08-24T09:52:32;16.17;;;10.98;;
78858;SDS011;68210;52.032;4.634;2023-08-24T09:54:37;15.80;;;11.30;;
78858;SDS011;68210;52.032;4.634;2023-08-24T09:56:39;19.20;;;11.43;;
78858;SDS011;68210;52.032;4.634;2023-08-24T09:58:40;17.90;;;11.77;;
78858;SDS011;68210;52.032;4.634;2023-08-24T10:00:42;20.52;;;14.23;;
78858;SDS011;68210;52.032;4.634;2023-08-24T10:02:49;17.90;;;11.88;;
78858;SDS011;68210;52.032;4.634;2023-08-24T10:04:50;18.02;;;12.57;;
78858;SDS011;68210;52.032;4.634;2023-08-24T10:06:56;17.90;;;12.35;;
78858;SDS011;68210;52.032;4.634;2023-08-24T10:09:04;16.75;;;13.00;;
78858;SDS011;68210;52.032;4.634;2023-08-24T10:11:08;17.13;;;12.18;;
78858;SDS011;68210;52.032;4.634;2023-08-24T10:15:37;20.52;;;13.77;;
78858;SDS011;68210;52.032;4.634;2023-08-24T10:17:46;20.33;;;13.38;;
78858;SDS011;68210;52.032;4.634;2023-08-24T10:19:47;20.27;;;14.82;;
78858;SDS011;68210;52.032;4.634;2023-08-24T10:21:51;18.10;;;13.65;;
78858;SDS011;68210;52.032;4.634;2023-08-24T10:23:53;20.38;;;13.38;;
78858;SDS011;68210;52.032;4.634;2023-08-24T10:25:56;18.35;;;13.07;;
78858;SDS011;68210;52.032;4.634;2023-08-24T10:27:57;27.95;;;15.30;;
78858;SDS011;68210;52.032;4.634;2023-08-24T10:29:58;22.05;;;13.80;;
78858;SDS011;68210;52.032;4.634;2023-08-24T10:32:00;23.85;;;14.82;;
78858;SDS011;68210;52.032;4.634;2023-08-24T10:34:04;22.75;;;15.38;;
78858;SDS011;68210;52.032;4.634;2023-08-24T10:36:06;21.02;;;15.20;;
78858;SDS011;68210;52.032;4.634;2023-08-24T10:38:07;21.17;;;13.98;;
78858;SDS011;68210;52.032;4.634;2023-08-24T10:40:09;24.88;;;16.13;;
78858;SDS011;68210;52.032;4.634;2023-08-24T10:42:11;21.15;;;15.18;;
78858;SDS011;68210;52.032;4.634;2023-08-24T10:44:13;20.75;;;15.00;;
78858;SDS011;68210;52.032;4.634;2023-08-24T10:46:20;24.98;;;15.40;;
78858;SDS011;68210;52.032;4.634;2023-08-24T10:48:21;21.50;;;13.65;;
78858;SDS011;68210;52.032;4.634;2023-08-24T10:50:25;21.48;;;14.50;;
78858;SDS011;68210;52.032;4.634;2023-08-24T10:52:30;20.73;;;15.55;;
78858;SDS011;68210;52.032;4.634;2023-08-24T10:54:31;23.30;;;15.15;;
78858;SDS011;68210;52.032;4.634;2023-08-24T10:56:38;23.23;;;15.32;;
78858;SDS011;68210;52.032;4.634;2023-08-24T10:58:39;19.33;;;13.80;;
78858;SDS011;68210;52.032;4.634;2023-08-24T11:00:40;15.50;;;9.68;;
78858;SDS011;68210;52.032;4.634;2023-08-24T11:02:49;20.35;;;13.90;;
78858;SDS011;68210;52.032;4.634;2023-08-24T11:05:05;19.67;;;14.50;;
78858;SDS011;68210;52.032;4.634;2023-08-24T11:07:32;20.55;;;13.63;;
78858;SDS011;68210;52.032;4.634;2023-08-24T11:09:45;18.95;;;13.40;;
78858;SDS011;68210;52.032;4.634;2023-08-24T11:12:02;18.45;;;12.98;;
78858;SDS011;68210;52.032;4.634;2023-08-24T11:14:20;16.70;;;11.38;;
78858;SDS011;68210;52.032;4.634;2023-08-24T11:16:38;20.17;;;11.27;;
78858;SDS011;68210;52.032;4.634;2023-08-24T11:18:39;21.85;;;13.32;;
78858;SDS011;68210;52.032;4.634;2023-08-24T11:20:42;17.52;;;12.85;;
78858;SDS011;68210;52.032;4.634;2023-08-24T11:22:44;17.02;;;12.35;;
78858;SDS011;68210;52.032;4.634;2023-08-24T11:24:44;19.58;;;14.10;;
78858;SDS011;68210;52.032;4.634;2023-08-24T11:26:46;11.98;;;6.85;;
78858;SDS011;68210;52.032;4.634;2023-08-24T11:28:47;16.65;;;9.85;;
78858;SDS011;68210;52.032;4.634;2023-08-24T11:30:53;11.77;;;7.50;;
78858;SDS011;68210;52.032;4.634;2023-08-24T11:32:55;12.82;;;8.55;;
78858;SDS011;68210;52.032;4.634;2023-08-24T11:34:55;22.02;;;13.13;;
78858;SDS011;68210;52.032;4.634;2023-08-24T11:36:55;22.80;;;13.88;;
78858;SDS011;68210;52.032;4.634;2023-08-24T11:38:57;22.92;;;14.30;;
78858;SDS011;68210;52.032;4.634;2023-08-24T11:40:58;18.42;;;10.90;;
78858;SDS011;68210;52.032;4.634;2023-08-24T11:42:59;20.60;;;12.98;;
78858;SDS011;68210;52.032;4.634;2023-08-24T11:44:59;16.60;;;12.68;;
78858;SDS011;68210;52.032;4.634;2023-08-24T11:47:00;19.98;;;13.80;;
78858;SDS011;68210;52.032;4.634;2023-08-24T11:49:00;18.80;;;13.35;;
78858;SDS011;68210;52.032;4.634;2023-08-24T11:51:00;22.30;;;12.98;;
78858;SDS011;68210;52.032;4.634;2023-08-24T11:53:01;18.02;;;11.57;;
78858;SDS011;68210;52.032;4.634;2023-08-24T11:55:02;22.13;;;14.57;;
78858;SDS011;68210;52.032;4.634;2023-08-24T11:57:07;20.70;;;15.75;;
78858;SDS011;68210;52.032;4.634;2023-08-24T11:59:12;21.90;;;14.07;;
78858;SDS011;68210;52.032;4.634;2023-08-24T12:01:13;22.58;;;14.30;;
78858;SDS011;68210;52.032;4.634;2023-08-24T12:03:13;21.15;;;14.50;;
78858;SDS011;68210;52.032;4.634;2023-08-24T12:05:25;20.00;;;13.45;;
78858;SDS011;68210;52.032;4.634;2023-08-24T12:07:28;22.58;;;14.10;;
78858;SDS011;68210;52.032;4.634;2023-08-24T12:09:31;21.27;;;12.95;;
78858;SDS011;68210;52.032;4.634;2023-08-24T12:11:35;23.98;;;13.65;;
78858;SDS011;68210;52.032;4.634;2023-08-24T12:13:36;17.92;;;13.45;;
78858;SDS011;68210;52.032;4.634;2023-08-24T12:15:37;17.80;;;13.18;;
78858;SDS011;68210;52.032;4.634;2023-08-24T12:17:43;18.98;;;13.75;;